createdAt,value
2023-03-01T00:00:49.430Z,983.95
2023-03-01T00:01:49.418Z,983.98
2023-03-01T00:02:49.402Z,984.00
2023-03-01T00:03:49.510Z,983.95
2023-03-01T00:04:49.516Z,983.97
2023-03-01T00:05:49.362Z,983.97
2023-03-01T00:06:49.349Z,983.98
2023-03-01T00:07:49.343Z,983.93
2023-03-01T00:08:49.314Z,983.87
2023-03-01T00:09:49.314Z,983.89
2023-03-01T00:10:49.329Z,983.98
2023-03-01T00:11:49.280Z,983.96
2023-03-01T00:12:49.267Z,983.90
2023-03-01T00:13:49.248Z,984.01
2023-03-01T00:14:49.240Z,983.93
2023-03-01T00:15:49.229Z,983.93
2023-03-01T00:16:49.230Z,983.96
2023-03-01T00:17:49.205Z,983.99
2023-03-01T00:18:49.177Z,983.94
2023-03-01T00:19:49.168Z,983.91
2023-03-01T00:20:49.449Z,983.92
2023-03-01T00:21:49.145Z,983.97
2023-03-01T00:22:49.135Z,983.96
2023-03-01T00:23:49.116Z,984.00
2023-03-01T00:24:49.097Z,983.98
2023-03-01T00:25:49.086Z,983.97
2023-03-01T00:26:49.094Z,983.94
2023-03-01T00:27:49.072Z,983.95
2023-03-01T00:28:49.053Z,983.92
2023-03-01T00:29:49.044Z,983.87
2023-03-01T00:30:49.165Z,983.90
2023-03-01T00:31:49.082Z,983.89
2023-03-01T00:32:49.002Z,983.87
2023-03-01T00:33:48.990Z,983.87
2023-03-01T00:34:48.970Z,983.85
2023-03-01T00:35:49.027Z,983.81
2023-03-01T00:36:48.948Z,983.85
2023-03-01T00:37:48.941Z,983.82
2023-03-01T00:38:48.921Z,983.86
2023-03-01T00:39:48.907Z,983.91
2023-03-01T00:40:48.888Z,983.77
2023-03-01T00:41:48.901Z,983.84
2023-03-01T00:42:48.888Z,983.80
2023-03-01T00:43:48.859Z,983.86
2023-03-01T00:44:48.866Z,983.85
2023-03-01T00:45:48.873Z,983.81
2023-03-01T00:46:48.819Z,983.83
2023-03-01T00:47:48.812Z,983.80
2023-03-01T00:48:48.789Z,983.79
2023-03-01T00:49:48.805Z,983.78
2023-03-01T00:50:48.776Z,983.80
2023-03-01T00:51:48.756Z,983.78
2023-03-01T00:52:48.738Z,983.77
2023-03-01T00:53:48.742Z,983.82
2023-03-01T00:54:48.721Z,983.74
2023-03-01T00:55:48.698Z,983.70
2023-03-01T00:56:48.690Z,983.70
2023-03-01T00:57:48.676Z,983.74
2023-03-01T00:58:48.687Z,983.70
2023-03-01T00:59:48.652Z,983.67
2023-03-01T01:00:48.883Z,983.65
2023-03-01T01:01:48.692Z,983.62
2023-03-01T01:02:48.687Z,983.65
2023-03-01T01:03:48.604Z,983.63
2023-03-01T01:04:48.591Z,983.67
2023-03-01T01:05:48.574Z,983.62
2023-03-01T01:06:48.556Z,983.61
2023-03-01T01:07:48.548Z,983.64
2023-03-01T01:08:48.532Z,983.60
2023-03-01T01:09:48.523Z,983.60
2023-03-01T01:10:48.496Z,983.51
2023-03-01T01:11:48.493Z,983.53
2023-03-01T01:12:48.476Z,983.56
2023-03-01T01:13:48.487Z,983.65
2023-03-01T01:14:48.472Z,983.64
2023-03-01T01:15:48.484Z,983.62
2023-03-01T01:16:48.423Z,983.53
2023-03-01T01:17:48.411Z,983.56
2023-03-01T01:18:48.399Z,983.53
2023-03-01T01:19:48.400Z,983.60
2023-03-01T01:20:48.372Z,983.61
2023-03-01T01:21:48.661Z,983.62
2023-03-01T01:22:48.544Z,983.57
2023-03-01T01:23:48.331Z,983.50
2023-03-01T01:24:48.330Z,983.50
2023-03-01T01:25:48.308Z,983.51
2023-03-01T01:26:48.299Z,983.42
2023-03-01T01:27:48.287Z,983.40
2023-03-01T01:28:48.289Z,983.45
2023-03-01T01:29:48.274Z,983.43
2023-03-01T01:30:48.291Z,983.45
2023-03-01T01:31:48.580Z,983.44
2023-03-01T01:32:48.227Z,983.43
2023-03-01T01:33:48.208Z,983.43
2023-03-01T01:34:48.191Z,983.43
2023-03-01T01:35:48.228Z,983.46
2023-03-01T01:36:48.171Z,983.41
2023-03-01T01:37:48.165Z,983.40
2023-03-01T01:38:48.141Z,983.37
2023-03-01T01:39:48.130Z,983.47
2023-03-01T01:40:48.108Z,983.50
2023-03-01T01:41:48.101Z,983.41
2023-03-01T01:42:48.078Z,983.46
2023-03-01T01:43:48.078Z,983.44
2023-03-01T01:44:48.059Z,983.50
2023-03-01T01:45:48.048Z,983.47
2023-03-01T01:46:48.257Z,983.40
2023-03-01T01:47:48.017Z,983.42
2023-03-01T01:48:48.003Z,983.38
2023-03-01T01:49:47.997Z,983.42
2023-03-01T01:50:47.981Z,983.38
2023-03-01T01:51:47.972Z,983.39
2023-03-01T01:52:47.948Z,983.45
2023-03-01T01:53:47.948Z,983.46
2023-03-01T01:54:47.929Z,983.43
2023-03-01T01:55:47.919Z,983.48
2023-03-01T01:56:47.899Z,983.43
2023-03-01T01:57:47.884Z,983.39
2023-03-01T01:58:47.879Z,983.35
2023-03-01T01:59:47.861Z,983.34
2023-03-01T02:00:47.853Z,983.32
2023-03-01T02:01:47.838Z,983.32
2023-03-01T02:02:47.943Z,983.32
2023-03-01T02:03:47.902Z,983.32
2023-03-01T02:04:47.799Z,983.32
2023-03-01T02:05:54.734Z,983.44
2023-03-01T02:06:48.793Z,983.39
2023-03-01T02:07:47.756Z,983.37
2023-03-01T02:08:47.794Z,983.34
2023-03-01T02:09:47.756Z,983.23
2023-03-01T02:10:47.718Z,983.24
2023-03-01T02:11:47.714Z,983.12
2023-03-01T02:12:47.694Z,983.11
2023-03-01T02:13:47.685Z,983.12
2023-03-01T02:14:47.687Z,983.09
2023-03-01T02:15:47.739Z,983.06
2023-03-01T02:16:47.814Z,983.04
2023-03-01T02:17:47.624Z,983.07
2023-03-01T02:18:47.753Z,983.04
2023-03-01T02:19:47.599Z,983.00
2023-03-01T02:20:47.581Z,983.01
2023-03-01T02:21:47.567Z,983.05
2023-03-01T02:22:47.555Z,983.06
2023-03-01T02:23:47.547Z,983.08
2023-03-01T02:24:47.530Z,982.96
2023-03-01T02:25:47.518Z,982.96
2023-03-01T02:26:47.511Z,983.00
2023-03-01T02:27:47.544Z,982.96
2023-03-01T02:28:47.525Z,982.91
2023-03-01T02:29:47.468Z,982.89
2023-03-01T02:30:47.445Z,982.92
2023-03-01T02:31:47.630Z,982.84
2023-03-01T02:32:47.526Z,982.88
2023-03-01T02:33:47.404Z,982.87
2023-03-01T02:34:47.413Z,982.88
2023-03-01T02:35:47.391Z,982.90
2023-03-01T02:36:47.369Z,982.84
2023-03-01T02:37:47.456Z,982.86
2023-03-01T02:38:47.340Z,982.84
2023-03-01T02:39:47.341Z,982.90
2023-03-01T02:40:47.320Z,982.87
2023-03-01T02:41:47.303Z,982.84
2023-03-01T02:42:47.584Z,982.89
2023-03-01T02:43:47.270Z,982.94
2023-03-01T02:44:47.259Z,982.91
2023-03-01T02:45:47.251Z,982.86
2023-03-01T02:46:47.300Z,982.76
2023-03-01T02:47:47.578Z,982.75
2023-03-01T02:48:47.216Z,982.76
2023-03-01T02:49:47.196Z,982.75
2023-03-01T02:50:47.198Z,982.72
2023-03-01T02:51:47.170Z,982.75
2023-03-01T02:52:47.159Z,982.72
2023-03-01T02:53:47.140Z,982.72
2023-03-01T02:54:47.129Z,982.73
2023-03-01T02:55:47.114Z,982.73
2023-03-01T02:56:47.104Z,982.72
2023-03-01T02:57:47.095Z,982.69
2023-03-01T02:58:47.072Z,982.67
2023-03-01T02:59:47.062Z,982.70
2023-03-01T03:00:47.151Z,982.66
2023-03-01T03:01:47.479Z,982.66
2023-03-01T03:02:47.372Z,982.66
2023-03-01T03:03:47.099Z,982.67
2023-03-01T03:04:47.002Z,982.66
2023-03-01T03:05:46.987Z,982.68
2023-03-01T03:06:46.997Z,982.64
2023-03-01T03:07:46.965Z,982.67
2023-03-01T03:08:46.948Z,982.63
2023-03-01T03:09:46.933Z,982.59
2023-03-01T03:10:47.218Z,982.60
2023-03-01T03:11:46.905Z,982.55
2023-03-01T03:12:46.981Z,982.60
2023-03-01T03:13:46.881Z,982.56
2023-03-01T03:14:46.864Z,982.51
2023-03-01T03:15:46.868Z,982.50
2023-03-01T03:16:46.844Z,982.52
2023-03-01T03:17:46.833Z,982.50
2023-03-01T03:18:46.811Z,982.53
2023-03-01T03:19:46.801Z,982.57
2023-03-01T03:20:46.793Z,982.52
2023-03-01T03:21:46.785Z,982.48
2023-03-01T03:22:46.792Z,982.53
2023-03-01T03:23:46.737Z,982.58
2023-03-01T03:24:46.747Z,982.59
2023-03-01T03:25:46.717Z,982.57
2023-03-01T03:26:46.706Z,982.59
2023-03-01T03:27:47.054Z,982.50
2023-03-01T03:28:46.675Z,982.56
2023-03-01T03:29:46.667Z,982.59
2023-03-01T03:30:46.653Z,982.51
2023-03-01T03:31:46.651Z,982.53
2023-03-01T03:32:46.616Z,982.53
2023-03-01T03:33:46.608Z,982.54
2023-03-01T03:34:46.589Z,982.46
2023-03-01T03:35:46.738Z,982.41
2023-03-01T03:36:46.561Z,982.38
2023-03-01T03:37:46.550Z,982.37
2023-03-01T03:38:46.568Z,982.40
2023-03-01T03:39:46.532Z,982.35
2023-03-01T03:40:46.510Z,982.38
2023-03-01T03:41:46.509Z,982.31
2023-03-01T03:42:46.486Z,982.29
2023-03-01T03:43:46.484Z,982.37
2023-03-01T03:44:46.457Z,982.39
2023-03-01T03:45:46.497Z,982.34
2023-03-01T03:46:46.431Z,982.30
2023-03-01T03:47:46.456Z,982.32
2023-03-01T03:48:46.412Z,982.30
2023-03-01T03:49:46.397Z,982.35
2023-03-01T03:50:46.379Z,982.28
2023-03-01T03:51:46.366Z,982.32
2023-03-01T03:52:46.357Z,982.31
2023-03-01T03:53:46.370Z,982.22
2023-03-01T03:54:46.352Z,982.30
2023-03-01T03:55:46.315Z,982.24
2023-03-01T03:56:46.300Z,982.22
2023-03-01T03:57:46.285Z,982.34
2023-03-01T03:58:46.298Z,982.25
2023-03-01T03:59:46.258Z,982.28
2023-03-01T04:00:46.242Z,982.29
2023-03-01T04:01:46.342Z,982.30
2023-03-01T04:02:46.277Z,982.25
2023-03-01T04:03:46.209Z,982.33
2023-03-01T04:04:46.191Z,982.25
2023-03-01T04:05:46.178Z,982.26
2023-03-01T04:06:46.170Z,982.32
2023-03-01T04:07:46.151Z,982.31
2023-03-01T04:08:46.155Z,982.26
2023-03-01T04:09:46.141Z,982.27
2023-03-01T04:10:46.136Z,982.30
2023-03-01T04:11:46.103Z,982.26
2023-03-01T04:12:46.092Z,982.21
2023-03-01T04:13:46.073Z,982.19
2023-03-01T04:14:47.979Z,982.24
2023-03-01T04:15:46.045Z,982.18
2023-03-01T04:16:46.067Z,982.21
2023-03-01T04:17:46.024Z,982.18
2023-03-01T04:18:46.009Z,982.13
2023-03-01T04:19:45.992Z,982.20
2023-03-01T04:20:46.009Z,982.23
2023-03-01T04:21:45.966Z,982.22
2023-03-01T04:22:45.962Z,982.19
2023-03-01T04:23:45.942Z,982.23
2023-03-01T04:24:45.925Z,982.27
2023-03-01T04:25:45.910Z,982.25
2023-03-01T04:26:45.928Z,982.26
2023-03-01T04:27:45.887Z,982.18
2023-03-01T04:28:46.426Z,982.12
2023-03-01T04:29:45.868Z,982.16
2023-03-01T04:30:45.852Z,982.14
2023-03-01T04:31:45.894Z,982.19
2023-03-01T04:32:45.870Z,982.22
2023-03-01T04:33:45.806Z,982.20
2023-03-01T04:34:45.809Z,982.10
2023-03-01T04:35:45.942Z,982.24
2023-03-01T04:36:45.938Z,982.17
2023-03-01T04:37:45.771Z,982.12
2023-03-01T04:38:45.745Z,982.11
2023-03-01T04:39:45.730Z,982.08
2023-03-01T04:40:45.720Z,982.10
2023-03-01T04:41:45.695Z,982.04
2023-03-01T04:42:45.715Z,981.97
2023-03-01T04:43:45.678Z,982.01
2023-03-01T04:44:45.660Z,982.04
2023-03-01T04:45:45.708Z,982.07
2023-03-01T04:46:45.636Z,982.09
2023-03-01T04:47:45.624Z,982.06
2023-03-01T04:48:45.616Z,982.08
2023-03-01T04:49:45.592Z,981.97
2023-03-01T04:50:45.583Z,982.02
2023-03-01T04:51:45.567Z,981.93
2023-03-01T04:52:45.552Z,981.96
2023-03-01T04:53:45.810Z,981.97
2023-03-01T04:54:45.972Z,981.98
2023-03-01T04:55:45.524Z,981.88
2023-03-01T04:56:45.500Z,981.91
2023-03-01T04:57:45.485Z,981.98
2023-03-01T04:58:45.498Z,981.94
2023-03-01T04:59:45.461Z,981.89
2023-03-01T05:00:45.451Z,981.93
2023-03-01T05:01:45.433Z,982.01
2023-03-01T05:02:45.444Z,981.90
2023-03-01T05:03:45.413Z,981.90
2023-03-01T05:04:45.437Z,981.91
2023-03-01T05:05:45.381Z,981.88
2023-03-01T05:06:45.366Z,981.90
2023-03-01T05:07:45.350Z,981.97
2023-03-01T05:08:45.350Z,981.97
2023-03-01T05:09:45.328Z,981.93
2023-03-01T05:10:45.317Z,981.97
2023-03-01T05:11:45.298Z,981.92
2023-03-01T05:12:45.283Z,981.91
2023-03-01T05:13:45.275Z,981.88
2023-03-01T05:14:45.282Z,981.93
2023-03-01T05:15:45.293Z,981.89
2023-03-01T05:16:45.231Z,981.92
2023-03-01T05:17:45.217Z,981.88
2023-03-01T05:18:45.261Z,981.85
2023-03-01T05:19:45.189Z,981.86
2023-03-01T05:20:45.184Z,981.90
2023-03-01T05:21:45.165Z,981.89
2023-03-01T05:22:45.152Z,981.88
2023-03-01T05:23:45.144Z,981.89
2023-03-01T05:24:45.124Z,981.91
2023-03-01T05:25:45.110Z,981.92
2023-03-01T05:26:45.101Z,981.87
2023-03-01T05:27:45.085Z,981.87
2023-03-01T05:28:45.070Z,981.84
2023-03-01T05:29:45.061Z,981.91
2023-03-01T05:30:45.099Z,981.94
2023-03-01T05:31:45.032Z,981.96
2023-03-01T05:32:45.022Z,981.93
2023-03-01T05:33:45.006Z,981.96
2023-03-01T05:34:44.997Z,981.93
2023-03-01T05:35:45.027Z,981.92
2023-03-01T05:36:44.968Z,981.89
2023-03-01T05:37:44.966Z,981.90
2023-03-01T05:38:44.942Z,981.90
2023-03-01T05:39:44.927Z,981.87
2023-03-01T05:40:44.913Z,981.87
2023-03-01T05:41:44.897Z,981.87
2023-03-01T05:42:44.890Z,981.84
2023-03-01T05:43:44.872Z,981.86
2023-03-01T05:44:44.861Z,981.88
2023-03-01T05:45:44.902Z,981.91
2023-03-01T05:46:44.862Z,981.79
2023-03-01T05:47:44.817Z,981.88
2023-03-01T05:48:44.875Z,981.96
2023-03-01T05:49:44.790Z,981.93
2023-03-01T05:50:44.783Z,981.93
2023-03-01T05:51:44.886Z,981.92
2023-03-01T05:52:44.749Z,981.95
2023-03-01T05:53:44.743Z,981.87
2023-03-01T05:54:44.737Z,981.99
2023-03-01T05:55:44.818Z,981.95
2023-03-01T05:56:44.706Z,981.91
2023-03-01T05:57:44.752Z,981.90
2023-03-01T05:58:44.681Z,981.85
2023-03-01T05:59:44.657Z,981.89
2023-03-01T06:00:44.664Z,981.88
2023-03-01T06:01:44.790Z,981.86
2023-03-01T06:02:44.654Z,981.85
2023-03-01T06:03:44.608Z,981.86
2023-03-01T06:04:44.757Z,981.87
2023-03-01T06:05:44.644Z,981.96
2023-03-01T06:06:44.566Z,981.83
2023-03-01T06:07:44.555Z,981.85
2023-03-01T06:08:44.538Z,981.83
2023-03-01T06:09:44.530Z,981.88
2023-03-01T06:10:44.518Z,981.86
2023-03-01T06:11:44.502Z,981.82
2023-03-01T06:12:44.491Z,981.89
2023-03-01T06:13:44.473Z,981.87
2023-03-01T06:14:44.468Z,981.82
2023-03-01T06:15:44.466Z,981.88
2023-03-01T06:16:44.433Z,981.80
2023-03-01T06:17:44.422Z,981.84
2023-03-01T06:18:44.459Z,981.84
2023-03-01T06:19:44.390Z,981.85
2023-03-01T06:20:44.385Z,981.75
2023-03-01T06:21:44.369Z,981.71
2023-03-01T06:22:44.367Z,981.70
2023-03-01T06:23:44.342Z,981.58
2023-03-01T06:24:44.325Z,981.59
2023-03-01T06:25:44.318Z,981.50
2023-03-01T06:26:44.301Z,981.60
2023-03-01T06:27:44.291Z,981.65
2023-03-01T06:28:44.276Z,981.73
2023-03-01T06:29:44.265Z,981.83
2023-03-01T06:30:44.250Z,981.82
2023-03-01T06:31:44.235Z,981.84
2023-03-01T06:32:44.228Z,981.82
2023-03-01T06:33:44.206Z,981.76
2023-03-01T06:34:44.244Z,981.80
2023-03-01T06:35:44.235Z,981.80
2023-03-01T06:36:44.182Z,981.78
2023-03-01T06:37:44.157Z,981.76
2023-03-01T06:38:44.145Z,981.81
2023-03-01T06:39:44.130Z,981.83
2023-03-01T06:40:44.114Z,981.81
2023-03-01T06:41:44.102Z,981.79
2023-03-01T06:42:44.096Z,981.76
2023-03-01T06:43:44.080Z,981.77
2023-03-01T06:44:44.062Z,981.79
2023-03-01T06:45:44.049Z,981.74
2023-03-01T06:46:44.061Z,981.78
2023-03-01T06:47:44.023Z,981.75
2023-03-01T06:48:44.008Z,981.75
2023-03-01T06:49:44.017Z,981.82
2023-03-01T06:50:44.047Z,981.69
2023-03-01T06:51:43.964Z,981.82
2023-03-01T06:52:43.958Z,981.76
2023-03-01T06:53:43.942Z,981.75
2023-03-01T06:54:43.929Z,981.65
2023-03-01T06:55:43.919Z,981.63
2023-03-01T06:56:43.894Z,981.73
2023-03-01T06:57:43.882Z,981.65
2023-03-01T06:58:43.877Z,981.69
2023-03-01T06:59:43.853Z,981.66
2023-03-01T07:00:43.840Z,981.73
2023-03-01T07:01:43.884Z,981.75
2023-03-01T07:02:43.854Z,981.72
2023-03-01T07:03:43.795Z,981.64
2023-03-01T07:04:43.804Z,981.70
2023-03-01T07:05:43.919Z,981.62
2023-03-01T07:06:44.038Z,981.62
2023-03-01T07:07:43.749Z,981.60
2023-03-01T07:08:43.801Z,981.52
2023-03-01T07:09:43.714Z,981.53
2023-03-01T07:10:43.705Z,981.45
2023-03-01T07:11:43.691Z,981.46
2023-03-01T07:12:43.686Z,981.47
2023-03-01T07:13:43.667Z,981.47
2023-03-01T07:14:43.661Z,981.44
2023-03-01T07:15:43.680Z,981.47
2023-03-01T07:16:43.628Z,981.42
2023-03-01T07:17:43.610Z,981.42
2023-03-01T07:18:43.604Z,981.39
2023-03-01T07:19:43.581Z,981.36
2023-03-01T07:20:43.571Z,981.37
2023-03-01T07:21:43.554Z,981.38
2023-03-01T07:22:43.560Z,981.43
2023-03-01T07:23:43.579Z,981.44
2023-03-01T07:24:43.520Z,981.43
2023-03-01T07:25:43.501Z,981.44
2023-03-01T07:26:43.504Z,981.48
2023-03-01T07:27:43.481Z,981.38
2023-03-01T07:28:43.712Z,981.41
2023-03-01T07:29:43.458Z,981.32
2023-03-01T07:30:43.592Z,981.38
2023-03-01T07:31:43.420Z,981.45
2023-03-01T07:32:43.716Z,981.38
2023-03-01T07:33:43.396Z,981.29
2023-03-01T07:34:43.391Z,981.44
2023-03-01T07:35:43.399Z,981.34
2023-03-01T07:36:43.387Z,981.34
2023-03-01T07:37:43.341Z,981.34
2023-03-01T07:38:43.361Z,981.31
2023-03-01T07:39:43.335Z,981.30
2023-03-01T07:40:43.298Z,981.32
2023-03-01T07:41:43.291Z,981.37
2023-03-01T07:42:43.305Z,981.31
2023-03-01T07:43:43.261Z,981.31
2023-03-01T07:44:43.247Z,981.31
2023-03-01T07:45:43.282Z,981.28
2023-03-01T07:46:43.216Z,981.25
2023-03-01T07:47:43.213Z,981.31
2023-03-01T07:48:43.192Z,981.24
2023-03-01T07:49:43.179Z,981.22
2023-03-01T07:50:43.170Z,981.27
2023-03-01T07:51:43.151Z,981.19
2023-03-01T07:52:43.137Z,981.21
2023-03-01T07:53:43.122Z,981.15
2023-03-01T07:54:43.129Z,981.15
2023-03-01T07:55:43.101Z,981.12
2023-03-01T07:56:43.084Z,981.20
2023-03-01T07:57:43.074Z,981.15
2023-03-01T07:58:43.073Z,981.14
2023-03-01T07:59:43.054Z,981.24
2023-03-01T08:00:43.032Z,981.17
2023-03-01T08:01:43.039Z,981.11
2023-03-01T08:02:43.159Z,981.13
2023-03-01T08:03:42.988Z,981.12
2023-03-01T08:04:42.973Z,981.15
2023-03-01T08:05:42.953Z,981.06
2023-03-01T08:06:42.942Z,981.10
2023-03-01T08:07:42.928Z,981.06
2023-03-01T08:08:42.914Z,981.07
2023-03-01T08:09:42.908Z,981.02
2023-03-01T08:10:42.907Z,981.16
2023-03-01T08:11:42.895Z,981.04
2023-03-01T08:12:42.854Z,981.03
2023-03-01T08:13:42.840Z,981.10
2023-03-01T08:14:42.831Z,981.08
2023-03-01T08:15:42.817Z,981.18
2023-03-01T08:16:42.902Z,981.19
2023-03-01T08:17:42.796Z,981.19
2023-03-01T08:18:42.777Z,981.13
2023-03-01T08:19:42.762Z,981.06
2023-03-01T08:20:42.746Z,981.08
2023-03-01T08:21:42.730Z,981.11
2023-03-01T08:22:42.721Z,981.08
2023-03-01T08:23:42.700Z,981.06
2023-03-01T08:24:42.700Z,980.98
2023-03-01T08:25:42.687Z,981.01
2023-03-01T08:26:42.705Z,981.07
2023-03-01T08:27:42.650Z,981.05
2023-03-01T08:28:42.780Z,981.11
2023-03-01T08:29:42.618Z,981.05
2023-03-01T08:30:42.608Z,981.06
2023-03-01T08:31:42.724Z,981.03
2023-03-01T08:32:42.725Z,980.98
2023-03-01T08:33:42.568Z,980.92
2023-03-01T08:34:42.677Z,980.96
2023-03-01T08:35:42.575Z,980.88
2023-03-01T08:36:42.531Z,980.88
2023-03-01T08:37:42.523Z,980.80
2023-03-01T08:38:42.502Z,980.86
2023-03-01T08:39:42.561Z,980.84
2023-03-01T08:40:42.463Z,980.89
2023-03-01T08:41:42.463Z,980.85
2023-03-01T08:42:42.463Z,980.85
2023-03-01T08:43:42.434Z,980.77
2023-03-01T08:44:42.421Z,980.80
2023-03-01T08:45:42.470Z,980.71
2023-03-01T08:46:42.386Z,980.68
2023-03-01T08:47:42.376Z,980.75
2023-03-01T08:48:42.366Z,980.62
2023-03-01T08:49:42.347Z,980.58
2023-03-01T08:50:42.512Z,980.65
2023-03-01T08:51:42.333Z,980.57
2023-03-01T08:52:42.307Z,980.57
2023-03-01T08:53:42.300Z,980.70
2023-03-01T08:54:42.320Z,980.63
2023-03-01T08:55:42.269Z,980.64
2023-03-01T08:56:42.252Z,980.65
2023-03-01T08:57:42.249Z,980.62
2023-03-01T08:58:42.246Z,980.57
2023-03-01T08:59:42.212Z,980.57
2023-03-01T09:00:42.195Z,980.54
2023-03-01T09:01:42.180Z,980.47
2023-03-01T09:02:42.170Z,980.33
2023-03-01T09:03:42.154Z,980.36
2023-03-01T09:04:42.137Z,980.35
2023-03-01T09:05:42.121Z,980.37
2023-03-01T09:06:42.124Z,980.34
2023-03-01T09:07:42.102Z,980.27
2023-03-01T09:08:42.132Z,980.20
2023-03-01T09:09:42.074Z,980.14
2023-03-01T09:10:42.062Z,980.12
2023-03-01T09:11:42.044Z,980.09
2023-03-01T09:12:42.031Z,980.18
2023-03-01T09:13:44.263Z,980.19
2023-03-01T09:14:42.036Z,979.99
2023-03-01T09:15:41.997Z,980.06
2023-03-01T09:16:42.005Z,979.96
2023-03-01T09:17:41.972Z,979.99
2023-03-01T09:18:41.953Z,979.97
2023-03-01T09:19:41.941Z,979.92
2023-03-01T09:20:41.922Z,980.01
2023-03-01T09:21:41.913Z,979.89
2023-03-01T09:22:41.894Z,979.94
2023-03-01T09:23:41.892Z,979.98
2023-03-01T09:24:41.879Z,979.97
2023-03-01T09:25:41.865Z,979.95
2023-03-01T09:26:41.897Z,979.86
2023-03-01T09:27:41.841Z,979.95
2023-03-01T09:28:41.900Z,979.95
2023-03-01T09:29:41.809Z,980.00
2023-03-01T09:30:41.853Z,979.95
2023-03-01T09:31:41.798Z,980.02
2023-03-01T09:32:41.770Z,980.11
2023-03-01T09:33:41.757Z,980.02
2023-03-01T09:34:41.739Z,979.88
2023-03-01T09:35:41.749Z,979.91
2023-03-01T09:36:41.713Z,979.92
2023-03-01T09:37:41.702Z,979.89
2023-03-01T09:38:41.681Z,979.93
2023-03-01T09:39:41.669Z,979.92
2023-03-01T09:40:41.764Z,980.00
2023-03-01T09:41:41.632Z,980.01
2023-03-01T09:42:41.619Z,979.93
2023-03-01T09:43:41.604Z,979.98
2023-03-01T09:44:41.625Z,979.97
2023-03-01T09:45:41.583Z,980.12
2023-03-01T09:46:41.589Z,980.06
2023-03-01T09:47:41.580Z,980.07
2023-03-01T09:48:41.542Z,980.17
2023-03-01T09:49:41.527Z,980.05
2023-03-01T09:50:41.509Z,979.97
2023-03-01T09:51:41.505Z,979.95
2023-03-01T09:52:41.481Z,979.87
2023-03-01T09:53:41.471Z,979.74
2023-03-01T09:54:41.462Z,979.76
2023-03-01T09:55:41.447Z,979.91
2023-03-01T09:56:41.438Z,979.96
2023-03-01T09:57:41.437Z,979.84
2023-03-01T09:58:41.407Z,979.83
2023-03-01T09:59:41.398Z,979.88
2023-03-01T10:00:41.383Z,979.90
2023-03-01T10:01:41.362Z,979.88
2023-03-01T10:02:41.374Z,979.92
2023-03-01T10:03:41.514Z,979.90
2023-03-01T10:04:41.343Z,979.89
2023-03-01T10:05:41.314Z,979.98
2023-03-01T10:06:41.296Z,979.98
2023-03-01T10:07:41.297Z,979.94
2023-03-01T10:08:41.276Z,979.90
2023-03-01T10:09:41.262Z,979.88
2023-03-01T10:10:41.247Z,979.85
2023-03-01T10:11:41.430Z,979.88
2023-03-01T10:12:41.219Z,979.93
2023-03-01T10:13:41.203Z,979.93
2023-03-01T10:14:41.199Z,979.92
2023-03-01T10:15:41.253Z,979.95
2023-03-01T10:16:41.171Z,979.93
2023-03-01T10:17:41.148Z,979.95
2023-03-01T10:18:41.158Z,979.87
2023-03-01T10:19:41.136Z,979.82
2023-03-01T10:20:41.113Z,979.86
2023-03-01T10:21:41.097Z,979.81
2023-03-01T10:22:41.281Z,979.85
2023-03-01T10:23:41.067Z,979.87
2023-03-01T10:24:41.047Z,979.83
2023-03-01T10:25:43.427Z,979.83
2023-03-01T10:26:41.017Z,979.82
2023-03-01T10:27:41.038Z,979.76
2023-03-01T10:28:40.997Z,979.77
2023-03-01T10:29:40.990Z,979.85
2023-03-01T10:30:40.970Z,979.87
2023-03-01T10:31:40.960Z,979.80
2023-03-01T10:32:40.952Z,979.83
2023-03-01T10:33:40.933Z,979.82
2023-03-01T10:34:40.942Z,979.78
2023-03-01T10:35:40.938Z,979.79
2023-03-01T10:36:40.886Z,979.77
2023-03-01T10:37:41.229Z,979.86
2023-03-01T10:38:40.860Z,979.84
2023-03-01T10:39:40.857Z,979.80
2023-03-01T10:40:40.837Z,979.70
2023-03-01T10:41:40.822Z,979.74
2023-03-01T10:42:40.813Z,979.84
2023-03-01T10:43:40.802Z,979.80
2023-03-01T10:44:40.796Z,979.75
2023-03-01T10:45:40.774Z,979.70
2023-03-01T10:46:40.842Z,979.65
2023-03-01T10:47:40.738Z,979.63
2023-03-01T10:48:40.726Z,979.59
2023-03-01T10:49:40.783Z,979.52
2023-03-01T10:50:42.243Z,979.48
2023-03-01T10:51:40.693Z,979.48
2023-03-01T10:52:40.673Z,979.42
2023-03-01T10:53:40.657Z,979.45
2023-03-01T10:54:40.644Z,979.51
2023-03-01T10:55:40.640Z,979.37
2023-03-01T10:56:40.610Z,979.31
2023-03-01T10:57:42.530Z,979.26
2023-03-01T10:58:40.583Z,979.10
2023-03-01T10:59:40.573Z,979.15
2023-03-01T11:00:40.565Z,979.16
2023-03-01T11:01:40.611Z,979.15
2023-03-01T11:02:40.575Z,979.22
2023-03-01T11:03:40.547Z,979.15
2023-03-01T11:04:40.549Z,979.27
2023-03-01T11:05:40.505Z,979.19
2023-03-01T11:06:40.500Z,979.16
2023-03-01T11:07:40.480Z,979.28
2023-03-01T11:08:40.458Z,979.23
2023-03-01T11:09:40.439Z,979.25
2023-03-01T11:10:40.425Z,978.97
2023-03-01T11:11:40.609Z,978.96
2023-03-01T11:12:40.392Z,978.96
2023-03-01T11:13:40.386Z,979.00
2023-03-01T11:14:40.364Z,979.14
2023-03-01T11:15:40.356Z,979.07
2023-03-01T11:16:40.349Z,979.07
2023-03-01T11:17:53.524Z,979.07
2023-03-01T11:18:47.834Z,979.03
2023-03-01T11:19:42.523Z,979.08
2023-03-01T11:20:40.283Z,979.07
2023-03-01T11:21:40.276Z,979.12
2023-03-01T11:22:40.303Z,979.04
2023-03-01T11:23:40.252Z,979.07
2023-03-01T11:24:42.303Z,978.89
2023-03-01T11:25:40.220Z,978.80
2023-03-01T11:26:40.209Z,978.79
2023-03-01T11:27:40.345Z,978.81
2023-03-01T11:28:40.178Z,978.74
2023-03-01T11:29:48.535Z,978.80
2023-03-01T11:30:41.187Z,978.84
2023-03-01T11:31:46.552Z,978.91
2023-03-01T11:32:41.348Z,978.83
2023-03-01T11:33:40.106Z,978.86
2023-03-01T11:34:40.096Z,978.80
2023-03-01T11:35:40.084Z,978.77
2023-03-01T11:36:40.072Z,978.69
2023-03-01T11:37:40.047Z,978.68
2023-03-01T11:38:40.057Z,978.64
2023-03-01T11:39:40.028Z,978.70
2023-03-01T11:40:40.016Z,978.51
2023-03-01T11:41:40.003Z,978.51
2023-03-01T11:42:40.030Z,978.47
2023-03-01T11:43:39.976Z,978.48
2023-03-01T11:44:39.962Z,978.51
2023-03-01T11:45:39.944Z,978.45
2023-03-01T11:46:40.072Z,978.49
2023-03-01T11:47:40.067Z,978.47
2023-03-01T11:48:49.202Z,978.41
2023-03-01T11:49:39.895Z,978.40
2023-03-01T11:50:39.880Z,978.45
2023-03-01T11:51:39.864Z,978.32
2023-03-01T11:52:39.882Z,978.18
2023-03-01T11:53:39.844Z,978.19
2023-03-01T11:54:39.905Z,978.08
2023-03-01T11:55:39.806Z,978.17
2023-03-01T11:56:39.800Z,978.20
2023-03-01T11:57:43.848Z,978.02
2023-03-01T11:58:39.777Z,978.07
2023-03-01T11:59:39.751Z,978.06
2023-03-01T12:00:39.762Z,978.01
2023-03-01T12:01:42.246Z,978.07
2023-03-01T12:02:39.708Z,978.08
2023-03-01T12:03:39.698Z,978.02
2023-03-01T12:04:39.712Z,977.95
2023-03-01T12:05:39.670Z,977.94
2023-03-01T12:06:39.657Z,977.90
2023-03-01T12:07:39.642Z,977.95
2023-03-01T12:08:39.635Z,977.92
2023-03-01T12:09:39.622Z,977.82
2023-03-01T12:10:39.658Z,977.79
2023-03-01T12:11:39.589Z,977.71
2023-03-01T12:12:39.626Z,977.79
2023-03-01T12:13:39.727Z,977.77
2023-03-01T12:14:39.553Z,977.78
2023-03-01T12:15:39.638Z,977.69
2023-03-01T12:16:39.937Z,977.76
2023-03-01T12:17:39.666Z,977.71
2023-03-01T12:18:39.528Z,977.68
2023-03-01T12:19:39.480Z,977.64
2023-03-01T12:20:39.479Z,977.60
2023-03-01T12:21:39.457Z,977.61
2023-03-01T12:22:39.444Z,977.53
2023-03-01T12:23:39.433Z,977.52
2023-03-01T12:24:39.419Z,977.51
2023-03-01T12:25:39.396Z,977.48
2023-03-01T12:26:39.405Z,977.42
2023-03-01T12:27:39.377Z,977.53
2023-03-01T12:28:39.360Z,977.37